Terminal Aerodrome Forecast
Issued by NWS

Home | Current Version | Previous Version | Text Only | Print | Product List | Glossary On
Versions: 1 2 3 4 5 6 7 8 9 10 11 12 13 14 15
000
FTAK31 PAJN 220700 AAA
TAFAWG
TAF AMD
PAWG 220709Z 2207/2306 08005KT P6SM -SHRA BKN020 OVC030
     FM220900 VRB06KT 5SM -SHRA BCFG BKN020 OVC030
     FM221500 13006KT P6SM VCSH BKN020 OVC030
     FM221900 13008KT P6SM VCSH SCT030 OVC050 PROB30 2219/2301 5SM
      -SHRA OVC020
      AMD LTD TO CLD VIS AND WIND 2207/2215=

USA.gov is the U.S. government's official web portal to all federal, state and local government web resources and services.